Terminal Aerodrome Forecast
Issued by NWS

Home | Current Version | Previous Version | Text Only | Print | Product List | Glossary On
Versions: 1 2 3 4 5 6 7 8 9 10 11 12 13 14 15 16
011
FTUS42 KTAE 251331 AAA
TAFDHN
TAF AMD
KDHN 251331Z 2514/2612 20008KT P6SM BKN008
     FM251600 21010G17KT P6SM BKN035
     FM260100 17007KT P6SM OVC040
     FM260400 20005KT 6SM BR OVC020=

USA.gov is the U.S. government's official web portal to all federal, state and local government web resources and services.